Latest Weather Observations for Padthaway

IDS60801

Issued at 7:04 pm CDT Sunday 1 March 2015 (issued every 30 minutes, with the page automatically refreshed every 10 minutes)

About weather observations | Map of weather stations | Latest weather observations for SA | Other Formats
Station Details ID: 026100 Name: PADTHAWAY SOUTH Lat: -36.65 Lon: 140.52 Height: 37.0 m
Data from the previous 72 hours. | See also: Recent months at Padthaway
Date/Time
CDT
Temp
°C
App
Temp
°C
Dew
Point
Rel
Hum
%
Delta-T
°C
Wind Press
QNH
hPa
Press
MSL
hPa
Rain
since 9 am
mm
Dir
 
Spd
km/h
Gust
km/h
Spd
kts
Gust
kts
01/07:00pm 21.3 17.0 7.9 42 7.0 SSE 20 28 11 15 - - 0.0
01/06:30pm 22.2 17.8 7.2 38 7.8 SSE 20 26 11 14 - - 0.0
01/06:00pm 22.8 18.4 6.6 35 8.3 SSE 19 28 10 15 - - 0.0
01/05:30pm 23.3 18.7 6.6 34 8.6 SE 20 28 11 15 - - 0.0
01/05:00pm 23.6 19.8 7.7 36 8.4 S 17 30 9 16 - - 0.0
01/04:30pm 23.6 19.7 7.3 35 8.5 S 17 24 9 13 - - 0.0
01/04:00pm 22.6 18.4 7.6 38 7.8 SE 19 30 10 16 - - 0.0
01/03:30pm 23.3 19.8 7.4 36 8.3 S 15 22 8 12 - - 0.0
01/03:00pm 22.4 18.9 7.4 38 7.8 SSE 15 26 8 14 - - 0.0
01/02:30pm 22.7 19.9 8.4 40 7.6 SSW 13 32 7 17 - - 0.0
01/02:00pm 22.0 18.7 8.2 41 7.3 S 15 24 8 13 - - 0.0
01/01:30pm 22.8 19.3 8.9 41 7.4 S 17 32 9 17 - - 0.0
01/01:00pm 20.8 17.0 9.1 47 6.2 SSW 19 30 10 16 - - 0.0
01/12:30pm 21.9 18.0 8.8 43 7.0 SSE 19 28 10 15 - - 0.0
01/12:00pm 19.7 16.6 10.4 55 5.0 S 17 28 9 15 - - 0.0
01/11:30am 20.2 17.3 10.9 55 5.1 SSE 17 26 9 14 - - 0.0
01/11:00am 19.2 16.2 10.7 58 4.6 S 17 26 9 14 - - 0.0
01/10:30am 19.0 16.2 11.3 61 4.2 S 17 28 9 15 - - 0.0
01/10:00am 17.4 14.8 12.1 71 2.9 S 17 26 9 14 - - 0.0
01/09:30am 17.0 14.6 12.5 75 2.5 S 17 22 9 12 - - 0.0
01/09:00am 15.8 14.4 12.2 79 2.0 SSW 11 17 6 9 - - 6.8
01/08:30am 13.7 13.1 11.7 88 1.1 WSW 6 9 3 5 - - 6.8
01/08:00am 12.7 13.3 11.8 94 0.5 CALM 0 0 0 0 - - 6.8
01/07:30am 10.9 11.0 10.0 94 0.5 CALM 0 0 0 0 - - 6.8
01/07:00am 10.3 10.1 9.2 93 0.5 CALM 0 0 0 0 - - 6.8
01/06:30am 11.2 11.2 9.9 92 0.7 CALM 0 0 0 0 - - 6.8
01/06:00am 11.1 10.7 9.7 91 0.7 WSW 2 6 1 3 - - 6.8
01/05:30am 11.7 10.4 10.1 90 0.8 W 7 9 4 5 - - 6.8
01/05:00am 12.0 10.8 10.2 89 0.9 W 7 9 4 5 - - 6.8
01/04:30am 12.4 12.5 10.3 87 1.1 CALM 0 0 0 0 - - 6.8
01/04:00am 12.4 11.2 10.3 87 1.1 W 7 11 4 6 - - 6.8
01/03:30am 12.6 11.4 10.3 86 1.2 W 7 11 4 6 - - 6.6
01/03:00am 13.1 11.7 10.8 86 1.2 WSW 9 13 5 7 - - 6.6
01/02:30am 13.8 12.8 11.1 84 1.4 WSW 7 13 4 7 - - 6.6
01/02:00am 14.5 13.0 11.8 84 1.5 SW 11 15 6 8 - - 6.6
01/01:30am 14.9 13.2 12.4 85 1.4 SW 13 19 7 10 - - 6.6
01/01:00am 14.9 13.8 13.1 89 1.0 WSW 11 17 6 9 - - 6.6
01/12:30am 14.7 13.9 12.9 89 1.0 WSW 9 11 5 6 - - 6.6
01/12:00am 15.3 14.6 13.1 87 1.2 SW 9 15 5 8 - - 6.6
 
Date/Time
CDT
Temp
°C
App
Temp
°C
Dew
Point
Rel
Hum
%
Delta-T
°C
Wind Press
QNH
hPa
Press
MSL
hPa
Rain
since 9 am
mm
Dir
 
Spd
km/h
Gust
km/h
Spd
kts
Gust
kts
28/11:30pm 15.7 14.7 13.4 86 1.3 SW 11 17 6 9 - - 6.6
28/11:00pm 15.8 14.4 13.3 85 1.4 SW 13 19 7 10 - - 6.6
28/10:30pm 15.8 14.4 13.5 86 1.3 SW 13 22 7 12 - - 6.6
28/10:00pm 16.0 14.7 13.8 87 1.2 SW 13 22 7 12 - - 6.6
28/09:30pm 16.6 14.6 13.9 84 1.5 SSW 17 28 9 15 - - 6.6
28/09:00pm 17.2 15.9 14.7 85 1.4 SSW 15 22 8 12 - - 6.6
28/08:30pm 17.8 15.8 15.4 86 1.4 SW 20 32 11 17 - - 6.6
28/08:00pm 18.0 17.7 16.5 91 0.9 SSW 13 19 7 10 - - 6.6
28/07:30pm 18.1 16.5 16.4 90 1.0 SSW 20 30 11 16 - - 6.6
28/07:00pm 18.9 18.1 17.0 89 1.2 SW 17 22 9 12 - - 5.6
28/06:30pm 19.8 19.3 17.9 89 1.2 SSW 17 22 9 12 - - 4.8
28/06:00pm 20.3 21.6 18.4 89 1.2 SW 9 17 5 9 - - 4.6
28/05:30pm 20.2 20.8 17.8 86 1.5 SW 11 19 6 10 - - 3.8
28/05:00pm 20.5 19.8 17.3 82 2.0 SSW 17 24 9 13 - - 2.4
28/04:30pm 22.7 19.1 16.3 67 3.9 SW 30 46 16 25 - - 0.0
28/04:23pm 23.6 19.3 15.4 60 4.9 SW 32 46 17 25 - - 0.0
28/04:00pm 28.7 25.0 12.6 37 9.4 WSW 24 35 13 19 - - 0.0
28/03:30pm 31.3 27.9 12.6 31 11.1 WSW 22 33 12 18 - - 0.0
28/03:00pm 31.2 27.4 12.5 31 11.1 WSW 24 39 13 21 - - 0.0
28/02:30pm 30.9 26.6 13.2 34 10.6 W 28 44 15 24 - - 0.0
28/02:00pm 31.9 26.5 12.2 30 11.6 W 32 46 17 25 - - 0.0
28/01:34pm 33.3 27.4 11.2 26 12.9 WSW 33 54 18 29 - - 0.0
28/01:30pm 33.6 27.6 10.2 24 13.5 W 32 65 17 35 - - 0.0
28/01:22pm 34.0 28.7 9.9 23 13.9 WNW 28 65 15 35 - - 0.0
28/01:00pm 33.6 28.2 9.6 23 13.7 W 28 43 15 23 - - 0.0
28/12:30pm 33.4 27.2 9.4 23 13.7 WNW 32 43 17 23 - - 0.0
28/12:11pm 33.1 27.4 9.8 24 13.3 NW 30 50 16 27 - - 0.0
28/12:00pm 33.2 28.1 10.5 25 13.1 NW 28 43 15 23 - - 0.0
28/11:30am 32.1 26.3 10.7 27 12.4 NNW 32 46 17 25 - - 0.0
28/11:00am 31.5 26.8 10.8 28 11.9 NNW 26 39 14 21 - - 0.0
28/10:30am 30.6 26.2 10.5 29 11.5 N 24 33 13 18 - - 0.0
28/10:00am 27.1 22.2 9.9 34 9.6 NNE 26 37 14 20 - - 0.0
28/09:30am 26.0 21.3 10.6 38 8.6 NNE 26 37 14 20 - - 0.0
28/09:00am 24.8 21.4 11.4 43 7.6 NNE 20 32 11 17 - - 0.0
28/08:30am 24.0 20.8 12.0 47 6.8 NE 20 33 11 18 - - 0.0
28/08:00am 23.5 20.2 12.8 51 6.2 NE 22 33 12 18 - - 0.0
28/07:30am 23.2 21.1 12.5 51 6.1 NE 15 24 8 13 - - 0.0
28/07:00am 22.8 19.8 12.1 51 6.1 NE 19 28 10 15 - - 0.0
28/06:30am 22.6 20.3 13.1 55 5.5 NE 17 26 9 14 - - 0.0
28/06:00am 21.9 21.1 14.0 61 4.6 NNE 11 19 6 10 - - 0.0
28/05:30am 22.2 21.3 13.8 59 4.9 NNE 11 19 6 10 - - 0.0
28/05:00am 21.7 19.7 13.9 61 4.5 NNE 17 28 9 15 - - 0.0
28/04:30am 21.5 19.9 13.9 62 4.4 NE 15 22 8 12 - - 0.0
28/04:00am 21.7 19.7 13.9 61 4.5 NE 17 24 9 13 - - 0.0
28/03:30am 21.7 19.5 13.3 59 4.8 NE 17 22 9 12 - - 0.0
28/03:00am 20.5 20.3 14.8 70 3.3 NE 9 13 5 7 - - 0.0
28/02:30am 19.9 21.6 16.3 80 2.2 N 2 9 1 5 - - 0.0
28/02:00am 20.4 21.0 15.8 75 2.7 NNW 7 11 4 6 - - 0.0
28/01:30am 20.7 21.2 15.0 70 3.4 N 6 7 3 4 - - 0.0
28/01:00am 20.6 21.1 14.9 70 3.4 NE 6 7 3 4 - - 0.0
28/12:30am 20.5 20.3 14.6 69 3.5 E 9 13 5 7 - - 0.0
28/12:00am 19.8 21.1 15.2 75 2.7 NE 2 7 1 4 - - 0.0
 
Date/Time
CDT
Temp
°C
App
Temp
°C
Dew
Point
Rel
Hum
%
Delta-T
°C
Wind Press
QNH
hPa
Press
MSL
hPa
Rain
since 9 am
mm
Dir
 
Spd
km/h
Gust
km/h
Spd
kts
Gust
kts
27/11:30pm 19.8 20.1 14.6 72 3.0 SE 6 13 3 7 - - 0.0
27/11:00pm 19.8 19.2 14.6 72 3.0 SE 11 15 6 8 - - 0.0
27/10:30pm 20.2 20.4 14.6 70 3.3 SE 7 11 4 6 - - 0.0
27/10:00pm 20.4 19.3 14.3 68 3.5 SSE 13 17 7 9 - - 0.0
27/09:30pm 21.6 19.5 13.5 60 4.7 SE 17 24 9 13 - - 0.0
27/09:00pm 22.8 21.0 13.3 55 5.5 SSE 15 20 8 11 - - 0.0
27/08:30pm 23.0 22.1 13.8 56 5.4 SSW 11 15 6 8 - - 0.0
27/08:00pm 23.6 22.6 13.5 53 5.9 S 11 17 6 9 - - 0.0
27/07:30pm 24.2 22.7 13.1 50 6.4 S 13 19 7 10 - - 0.0
27/07:00pm 24.5 22.3 13.4 50 6.5 SSW 17 22 9 12 - - 0.0
27/06:30pm 24.9 22.6 13.1 48 6.9 SSW 17 28 9 15 - - 0.0
27/06:00pm 26.0 23.1 12.8 44 7.7 SW 20 32 11 17 - - 0.0
27/05:30pm 28.6 26.9 12.5 37 9.4 WSW 13 28 7 15 - - 0.0
27/05:00pm 29.4 27.1 11.9 34 10.2 W 15 19 8 10 - - 0.0
27/04:30pm 29.9 28.0 11.9 33 10.5 WSW 13 20 7 11 - - 0.0
27/04:00pm 29.7 28.7 12.2 34 10.2 WSW 9 19 5 10 - - 0.0
27/03:30pm 30.1 30.2 11.6 32 10.7 WNW 2 17 1 9 - - 0.0
27/03:00pm 29.3 27.7 11.4 33 10.3 S 11 17 6 9 - - 0.0
27/02:30pm 28.7 27.2 10.4 32 10.4 SSW 9 17 5 9 - - 0.0
27/02:00pm 27.8 26.8 10.9 35 9.6 S 7 15 4 8 - - 0.0
27/01:30pm 27.4 25.9 10.6 35 9.5 WSW 9 13 5 7 - - 0.0
27/01:00pm 26.3 25.8 12.7 43 7.9 ENE 7 22 4 12 - - 0.0
27/12:30pm 25.7 24.9 12.9 45 7.4 NW 9 15 5 8 - - 0.0
27/12:00pm 25.0 25.2 12.9 47 7.0 N 4 11 2 6 - - 0.0
27/11:30am 24.0 23.3 13.2 50 6.3 NNE 9 15 5 8 - - 0.0
27/11:00am 23.5 23.1 13.1 52 6.0 NNE 7 15 4 8 - - 0.0
27/10:30am 22.6 21.9 13.1 55 5.5 NE 9 15 5 8 - - 0.0
27/10:00am 21.6 20.4 12.7 57 5.1 NE 11 17 6 9 - - 0.0
27/09:30am 20.6 19.0 12.8 61 4.4 NE 13 17 7 9 - - 0.0
27/09:00am 19.7 17.9 13.2 66 3.7 ENE 15 19 8 10 - - 0.0
27/08:30am 18.0 17.8 13.5 75 2.6 E 7 11 4 6 - - 0.0
27/08:00am 14.9 15.8 12.9 88 1.1 CALM 0 0 0 0 - - 0.0
27/07:30am 13.4 14.1 12.1 92 0.7 CALM 0 0 0 0 - - 0.0
27/07:00am 11.8 10.6 10.4 91 0.7 ESE 7 9 4 5 - - 0.0
27/06:30am 11.8 11.9 10.2 90 0.8 CALM 0 0 0 0 - - 0.0
27/06:00am 12.3 11.8 10.9 91 0.7 SSE 4 9 2 5 - - 0.0
27/05:30am 11.8 11.9 10.0 89 0.9 CALM 0 7 0 4 - - 0.0
27/05:00am 11.9 12.0 10.1 89 0.9 CALM 0 0 0 0 - - 0.0
27/04:30am 12.7 13.1 11.1 90 0.8 CALM 0 0 0 0 - - 0.0
27/04:00am 12.7 11.9 10.9 89 0.9 E 6 7 3 4 - - 0.0
27/03:30am 13.1 12.2 11.3 89 1.0 E 7 9 4 5 - - 0.0
27/03:00am 14.0 13.4 12.4 90 0.9 S 7 9 4 5 - - 0.0
27/02:30am 14.7 14.3 12.9 89 1.0 S 7 9 4 5 - - 0.0
27/02:00am 15.1 14.0 13.1 88 1.1 ESE 11 15 6 8 - - 0.0
27/01:30am 15.6 15.0 13.6 88 1.1 SSE 9 11 5 6 - - 0.0
27/01:00am 15.8 15.2 13.6 87 1.2 SSE 9 13 5 7 - - 0.0
27/12:30am 16.0 15.1 13.7 86 1.3 SSE 11 15 6 8 - - 0.0
27/12:00am 16.0 15.3 13.3 84 1.5 S 9 11 5 6 - - 0.0
 
Date/Time
CDT
Temp
°C
App
Temp
°C
Dew
Point
Rel
Hum
%
Delta-T
°C
Wind Press
QNH
hPa
Press
MSL
hPa
Rain
since 9 am
mm
Dir
 
Spd
km/h
Gust
km/h
Spd
kts
Gust
kts
26/11:30pm 16.5 15.7 12.8 79 2.1 S 9 13 5 7 - - 0.0
26/11:00pm 16.9 15.9 12.2 74 2.6 SW 9 13 5 7 - - 0.0
26/10:30pm 17.5 16.4 11.8 69 3.1 SSW 9 13 5 7 - - 0.0
26/10:00pm 18.5 17.3 11.6 64 3.8 S 9 15 5 8 - - 0.0
26/09:30pm 19.3 17.3 11.6 61 4.2 SSW 13 17 7 9 - - 0.0
26/09:00pm 20.0 18.5 12.0 60 4.5 SSW 11 20 6 11 - - 0.0
26/08:30pm 21.2 19.2 12.6 58 4.9 SSW 15 22 8 12 - - 0.0
26/08:00pm 22.1 20.4 12.4 54 5.5 SW 13 19 7 10 - - 0.0
26/07:30pm 23.6 21.9 12.6 50 6.3 SSW 13 17 7 9 - - 0.0

Other Formats:

Comma delimited format used in spreadsheet applications
http://www.bom.gov.au/fwo/IDS60801/IDS60801.95823.axf

JavaScript Object Notation format (JSON) in row-major order
http://www.bom.gov.au/fwo/IDS60801/IDS60801.95823.json